createdAt,value
2022-10-03T00:01:43.465Z,6.55
2022-10-03T00:04:41.046Z,5.47
2022-10-03T00:07:16.457Z,16.52
2022-10-03T00:10:05.999Z,18.83
2022-10-03T00:15:39.783Z,7.07
2022-10-03T00:18:19.067Z,7.10
2022-10-03T00:21:18.548Z,6.20
2022-10-03T00:26:40.563Z,7.88
2022-10-03T00:29:35.308Z,12.32
2022-10-03T00:32:26.449Z,11.68
2022-10-03T00:35:15.464Z,10.50
2022-10-03T00:38:07.445Z,12.75
2022-10-03T00:40:54.720Z,9.13
2022-10-03T00:43:51.315Z,9.18
2022-10-03T00:46:43.236Z,7.68
2022-10-03T00:49:32.098Z,7.13
2022-10-03T00:52:54.443Z,8.20
2022-10-03T00:55:43.011Z,7.97
2022-10-03T00:58:25.903Z,6.63
2022-10-03T01:01:02.775Z,5.97
2022-10-03T01:03:51.891Z,7.03
2022-10-03T01:06:34.563Z,8.80
2022-10-03T01:09:35.224Z,6.63
2022-10-03T01:12:42.998Z,8.00
2022-10-03T01:15:39.321Z,7.03
2022-10-03T01:18:29.713Z,7.10
2022-10-03T01:21:09.161Z,6.80
2022-10-03T01:26:40.118Z,8.65
2022-10-03T01:29:36.805Z,7.07
2022-10-03T01:32:17.540Z,7.20
2022-10-03T01:35:07.694Z,6.80
2022-10-03T01:37:49.113Z,7.20
2022-10-03T01:40:40.104Z,8.23
2022-10-03T01:43:21.069Z,8.80
2022-10-03T01:45:59.840Z,9.40
2022-10-03T01:48:52.417Z,9.68
2022-10-03T01:51:28.667Z,7.75
2022-10-03T01:54:04.166Z,8.27
2022-10-03T01:56:45.982Z,8.90
2022-10-03T01:59:18.206Z,9.20
2022-10-03T02:01:48.643Z,8.68
2022-10-03T02:04:31.490Z,8.32
2022-10-03T02:07:37.643Z,8.32
2022-10-03T02:10:25.036Z,9.07
2022-10-03T02:13:12.690Z,6.07
2022-10-03T02:15:48.995Z,8.00
2022-10-03T02:18:38.663Z,7.63
2022-10-03T02:21:13.376Z,5.90
2022-10-03T02:23:46.120Z,6.63
2022-10-03T02:26:31.976Z,8.73
2022-10-03T02:29:36.418Z,8.32
2022-10-03T02:32:15.335Z,10.43
2022-10-03T02:35:02.055Z,7.03
2022-10-03T02:38:05.892Z,7.72
2022-10-03T02:40:49.869Z,8.43
2022-10-03T02:43:48.409Z,6.03
2022-10-03T02:46:37.196Z,6.82
2022-10-03T02:49:38.220Z,6.88
2022-10-03T02:52:46.859Z,7.38
2022-10-03T02:55:22.844Z,6.57
2022-10-03T02:58:13.263Z,7.00
2022-10-03T03:01:18.218Z,6.85
2022-10-03T03:03:51.493Z,7.40
2022-10-03T03:06:31.022Z,8.73
2022-10-03T03:11:56.366Z,6.28
2022-10-03T03:14:55.432Z,8.25
2022-10-03T03:18:00.000Z,8.35
2022-10-03T03:20:54.590Z,7.00
2022-10-03T03:23:58.581Z,6.35
2022-10-03T03:27:01.245Z,6.30
2022-10-03T03:29:31.229Z,6.85
2022-10-03T03:32:08.650Z,5.97
2022-10-03T03:35:14.311Z,6.13
2022-10-03T03:38:14.184Z,5.35
2022-10-03T03:41:22.661Z,6.38
2022-10-03T03:43:55.745Z,5.57
2022-10-03T03:46:38.822Z,5.45
2022-10-03T03:49:24.657Z,8.77
2022-10-03T03:52:10.548Z,6.20
2022-10-03T03:55:06.603Z,6.13
2022-10-03T03:57:42.815Z,4.13
2022-10-03T04:00:18.268Z,4.55
2022-10-03T04:03:21.536Z,6.93
2022-10-03T04:05:48.569Z,2.63
2022-10-03T04:08:46.489Z,2.72
2022-10-03T04:11:32.638Z,3.85
2022-10-03T04:14:44.600Z,3.33
2022-10-03T04:17:45.396Z,2.70
2022-10-03T04:20:24.372Z,7.95
2022-10-03T04:23:04.171Z,4.45
2022-10-03T04:25:46.434Z,4.65
2022-10-03T04:28:34.377Z,3.92
2022-10-03T04:31:20.499Z,3.72
2022-10-03T04:34:09.867Z,4.43
2022-10-03T04:37:01.311Z,5.18
2022-10-03T04:39:47.015Z,6.80
2022-10-03T04:42:21.245Z,7.10
2022-10-03T04:44:51.269Z,7.28
2022-10-03T04:47:40.961Z,7.30
2022-10-03T04:50:25.148Z,7.07
2022-10-03T04:52:57.423Z,8.65
2022-10-03T04:55:38.358Z,7.45
2022-10-03T04:58:20.250Z,7.10
2022-10-03T05:01:26.286Z,5.82
2022-10-03T05:04:10.491Z,8.93
2022-10-03T05:06:55.553Z,6.15
2022-10-03T05:09:38.452Z,9.35
2022-10-03T05:12:10.335Z,8.48
2022-10-03T05:14:58.769Z,7.30
2022-10-03T05:17:46.147Z,9.20
2022-10-03T05:20:37.739Z,5.20
2022-10-03T05:23:26.503Z,4.95
2022-10-03T05:26:32.310Z,3.53
2022-10-03T05:29:01.733Z,5.65
2022-10-03T05:31:44.974Z,4.50
2022-10-03T05:34:33.074Z,4.20
2022-10-03T05:37:12.672Z,4.30
2022-10-03T05:42:35.743Z,3.45
2022-10-03T05:45:24.280Z,3.10
2022-10-03T05:48:01.278Z,2.70
2022-10-03T05:51:11.098Z,4.47
2022-10-03T05:53:57.180Z,3.10
2022-10-03T05:56:41.166Z,4.10
2022-10-03T05:59:39.834Z,4.15
2022-10-03T06:02:21.881Z,4.43
2022-10-03T06:04:53.332Z,4.13
2022-10-03T06:07:30.669Z,4.53
2022-10-03T06:10:09.772Z,4.88
2022-10-03T06:13:01.498Z,3.78
2022-10-03T06:15:54.146Z,3.92
2022-10-03T06:18:39.901Z,4.03
2022-10-03T06:21:32.326Z,5.30
2022-10-03T06:24:18.155Z,7.78
2022-10-03T06:26:55.701Z,4.35
2022-10-03T06:29:25.930Z,5.60
2022-10-03T06:32:13.925Z,4.03
2022-10-03T06:34:57.976Z,4.50
2022-10-03T06:37:52.559Z,4.82
2022-10-03T06:40:40.837Z,5.22
2022-10-03T06:43:41.638Z,5.20
2022-10-03T06:46:45.485Z,4.53
2022-10-03T06:49:33.973Z,3.42
2022-10-03T06:52:32.085Z,3.22
2022-10-03T06:55:10.446Z,3.70
2022-10-03T06:58:02.299Z,2.90
2022-10-03T07:00:53.681Z,3.17
2022-10-03T07:03:39.547Z,5.07
2022-10-03T07:06:51.247Z,5.75
2022-10-03T07:09:53.839Z,4.45
2022-10-03T07:12:44.793Z,3.05
2022-10-03T07:15:43.615Z,3.35
2022-10-03T07:21:16.937Z,3.50
2022-10-03T07:24:17.919Z,2.72
2022-10-03T07:27:03.207Z,4.07
2022-10-03T07:29:54.719Z,2.88
2022-10-03T07:32:27.739Z,4.70
2022-10-03T07:35:51.548Z,4.53
2022-10-03T07:38:59.103Z,3.30
2022-10-03T07:41:38.560Z,4.78
2022-10-03T07:44:44.992Z,3.83
2022-10-03T07:47:30.731Z,4.20
2022-10-03T07:50:18.833Z,4.47
2022-10-03T07:52:55.128Z,3.83
2022-10-03T07:55:47.401Z,4.35
2022-10-03T07:58:28.765Z,3.17
2022-10-03T08:01:17.620Z,3.85
2022-10-03T08:04:15.859Z,3.90
2022-10-03T08:06:47.973Z,3.20
2022-10-03T08:09:42.063Z,2.42
2022-10-03T08:12:09.163Z,2.15
2022-10-03T08:14:57.816Z,2.40
2022-10-03T08:17:46.230Z,2.57
2022-10-03T08:20:28.406Z,8.57
2022-10-03T08:23:38.049Z,4.20
2022-10-03T08:26:20.588Z,3.08
2022-10-03T08:29:09.127Z,3.05
2022-10-03T08:31:36.157Z,3.40
2022-10-03T08:34:44.524Z,4.20
2022-10-03T08:37:42.552Z,4.25
2022-10-03T08:40:15.643Z,3.13
2022-10-03T08:43:01.516Z,2.20
2022-10-03T08:45:52.735Z,2.83
2022-10-03T08:48:54.968Z,2.63
2022-10-03T08:51:50.638Z,2.80
2022-10-03T08:54:55.254Z,2.30
2022-10-03T08:57:37.582Z,2.58
2022-10-03T09:00:30.498Z,2.45
2022-10-03T09:06:29.906Z,2.58
2022-10-03T09:09:12.197Z,1.88
2022-10-03T09:11:39.581Z,3.00
2022-10-03T09:14:31.537Z,2.40
2022-10-03T09:17:17.030Z,2.33
2022-10-03T09:19:56.357Z,2.67
2022-10-03T09:22:54.305Z,2.00
2022-10-03T09:25:58.813Z,2.25
2022-10-03T09:28:50.405Z,1.70
2022-10-03T09:31:48.534Z,1.40
2022-10-03T09:34:30.547Z,1.60
2022-10-03T09:37:09.741Z,1.23
2022-10-03T09:39:42.625Z,1.60
2022-10-03T09:42:51.080Z,1.50
2022-10-03T09:45:39.694Z,3.10
2022-10-03T09:48:42.053Z,1.67
2022-10-03T09:51:16.900Z,1.20
2022-10-03T09:54:16.738Z,1.45
2022-10-03T09:57:22.586Z,2.00
2022-10-03T10:00:03.847Z,1.70
2022-10-03T10:02:50.805Z,1.60
2022-10-03T10:05:48.775Z,2.17
2022-10-03T10:08:18.725Z,1.10
2022-10-03T10:11:04.641Z,1.13
2022-10-03T10:14:07.980Z,2.13
2022-10-03T10:17:09.744Z,1.55
2022-10-03T10:19:51.982Z,1.23
2022-10-03T10:23:03.241Z,1.60
2022-10-03T10:25:53.808Z,1.17
2022-10-03T10:28:51.461Z,1.25
2022-10-03T10:31:56.097Z,1.40
2022-10-03T10:34:41.364Z,1.25
2022-10-03T10:37:27.073Z,1.23
2022-10-03T10:40:36.981Z,1.70
2022-10-03T10:43:25.597Z,1.48
2022-10-03T10:46:17.540Z,1.73
2022-10-03T10:49:15.369Z,1.30
2022-10-03T10:52:00.391Z,1.70
2022-10-03T10:54:52.281Z,1.90
2022-10-03T10:57:24.739Z,2.00
2022-10-03T10:59:54.665Z,1.90
2022-10-03T11:02:21.663Z,1.70
2022-10-03T11:05:19.556Z,1.30
2022-10-03T11:08:08.611Z,1.95
2022-10-03T11:11:13.401Z,1.90
2022-10-03T11:14:11.253Z,1.58
2022-10-03T11:17:14.423Z,1.98
2022-10-03T11:20:00.239Z,1.52
2022-10-03T11:23:05.781Z,1.30
2022-10-03T11:26:00.424Z,1.77
2022-10-03T11:29:04.560Z,1.50
2022-10-03T11:32:09.603Z,1.23
2022-10-03T11:34:48.874Z,1.30
2022-10-03T11:37:42.283Z,2.05
2022-10-03T11:40:32.645Z,1.73
2022-10-03T11:43:56.327Z,1.27
2022-10-03T11:46:44.835Z,1.30
2022-10-03T11:49:17.705Z,1.90
2022-10-03T11:52:32.909Z,2.05
2022-10-03T11:55:07.889Z,2.17
2022-10-03T11:57:39.003Z,1.40
2022-10-03T12:00:14.219Z,1.48
2022-10-03T12:02:53.657Z,1.50
2022-10-03T12:05:47.094Z,1.65
2022-10-03T12:08:46.026Z,1.75
2022-10-03T12:11:23.982Z,1.50
2022-10-03T12:14:11.521Z,1.70
2022-10-03T12:17:08.083Z,1.63
2022-10-03T12:19:35.208Z,1.65
2022-10-03T12:22:21.145Z,1.30
2022-10-03T12:24:49.965Z,2.95
2022-10-03T12:27:36.640Z,1.50
2022-10-03T12:30:16.320Z,2.08
2022-10-03T12:33:00.891Z,2.05
2022-10-03T12:35:50.450Z,1.48
2022-10-03T12:38:26.010Z,1.75
2022-10-03T12:41:07.685Z,1.90
2022-10-03T12:44:19.231Z,1.70
2022-10-03T12:47:11.494Z,2.17
2022-10-03T12:49:53.411Z,1.27
2022-10-03T12:52:29.482Z,1.88
2022-10-03T12:55:18.299Z,1.73
2022-10-03T12:57:52.114Z,1.70
2022-10-03T13:00:24.172Z,1.33
2022-10-03T13:03:21.477Z,1.40
2022-10-03T13:06:03.814Z,1.90
2022-10-03T13:09:12.699Z,1.50
2022-10-03T13:12:10.386Z,1.60
2022-10-03T13:15:17.673Z,1.45
2022-10-03T13:17:55.999Z,1.58
2022-10-03T13:20:32.302Z,1.98
2022-10-03T13:23:23.793Z,1.30
2022-10-03T13:26:11.719Z,1.73
2022-10-03T13:28:55.082Z,1.48
2022-10-03T13:31:27.068Z,2.13
2022-10-03T13:34:02.678Z,2.00
2022-10-03T13:36:35.235Z,1.90
2022-10-03T13:39:16.192Z,2.30
2022-10-03T13:41:45.955Z,2.00
2022-10-03T13:44:19.951Z,2.72
2022-10-03T13:47:07.787Z,2.15
2022-10-03T13:49:44.641Z,2.05
2022-10-03T13:52:22.171Z,1.73
2022-10-03T13:55:01.497Z,1.65
2022-10-03T13:57:34.988Z,1.98
2022-10-03T14:00:10.008Z,2.33
2022-10-03T14:02:59.831Z,2.42
2022-10-03T14:05:38.862Z,3.00
2022-10-03T14:08:30.719Z,1.92
2022-10-03T14:11:18.257Z,1.98
2022-10-03T14:13:54.456Z,2.53
2022-10-03T14:16:25.390Z,2.03
2022-10-03T14:19:20.160Z,2.30
2022-10-03T14:22:05.950Z,1.60
2022-10-03T14:24:51.655Z,2.53
2022-10-03T14:27:30.925Z,2.03
2022-10-03T14:30:10.077Z,2.63
2022-10-03T14:33:16.978Z,2.10
2022-10-03T14:36:11.518Z,2.15
2022-10-03T14:39:03.056Z,2.10
2022-10-03T14:41:32.832Z,2.38
2022-10-03T14:44:12.619Z,2.45
2022-10-03T14:46:50.553Z,2.33
2022-10-03T14:49:52.364Z,2.70
2022-10-03T14:52:26.222Z,2.53
2022-10-03T14:55:02.804Z,3.00
2022-10-03T14:58:11.712Z,2.38
2022-10-03T15:03:18.093Z,2.42
2022-10-03T15:05:57.172Z,3.10
2022-10-03T15:08:31.187Z,2.80
2022-10-03T15:10:58.595Z,2.53
2022-10-03T15:13:28.903Z,2.83
2022-10-03T15:15:56.701Z,2.45
2022-10-03T15:18:25.023Z,2.70
2022-10-03T15:20:54.956Z,2.77
2022-10-03T15:23:28.389Z,2.47
2022-10-03T15:25:57.398Z,1.73
2022-10-03T15:28:36.743Z,2.03
2022-10-03T15:31:10.158Z,2.85
2022-10-03T15:33:39.407Z,1.80
2022-10-03T15:38:38.559Z,2.28
2022-10-03T15:41:28.846Z,1.77
2022-10-03T15:44:04.793Z,2.10
2022-10-03T15:46:44.183Z,2.45
2022-10-03T15:49:21.123Z,2.15
2022-10-03T15:51:48.802Z,2.05
2022-10-03T15:54:23.202Z,1.98
2022-10-03T15:57:01.558Z,1.65
2022-10-03T15:59:34.492Z,2.53
2022-10-03T16:02:18.974Z,1.52
2022-10-03T16:04:47.805Z,1.60
2022-10-03T16:07:30.249Z,2.92
2022-10-03T16:10:14.652Z,2.03
2022-10-03T16:13:06.330Z,2.00
2022-10-03T16:15:51.860Z,2.10
2022-10-03T16:18:18.975Z,1.73
2022-10-03T16:20:53.819Z,2.35
2022-10-03T16:23:24.472Z,2.20
2022-10-03T16:25:59.254Z,2.17
2022-10-03T16:28:50.593Z,1.80
2022-10-03T16:31:26.511Z,2.35
2022-10-03T16:33:59.700Z,2.20
2022-10-03T16:36:27.029Z,2.60
2022-10-03T16:38:59.528Z,2.42
2022-10-03T16:41:31.699Z,2.50
2022-10-03T16:44:01.785Z,2.90
2022-10-03T16:46:35.068Z,2.60
2022-10-03T16:49:27.757Z,2.08
2022-10-03T16:52:01.299Z,2.58
2022-10-03T16:54:31.614Z,2.55
2022-10-03T16:57:02.106Z,3.47
2022-10-03T16:59:31.485Z,2.90
2022-10-03T17:04:39.042Z,2.67
2022-10-03T17:07:29.861Z,2.30
2022-10-03T17:09:58.620Z,2.45
2022-10-03T17:12:38.335Z,5.00
2022-10-03T17:15:08.806Z,4.40
2022-10-03T17:17:59.972Z,3.15
2022-10-03T17:20:37.305Z,3.38
2022-10-03T17:23:18.641Z,3.33
2022-10-03T17:26:02.336Z,3.25
2022-10-03T17:28:55.767Z,3.30
2022-10-03T17:31:51.501Z,3.80
2022-10-03T17:34:21.464Z,3.88
2022-10-03T17:37:04.213Z,3.60
2022-10-03T17:39:45.552Z,3.17
2022-10-03T17:42:15.621Z,3.55
2022-10-03T17:45:18.322Z,3.50
2022-10-03T17:48:04.966Z,3.05
2022-10-03T17:50:41.760Z,3.17
2022-10-03T17:53:22.484Z,3.63
2022-10-03T17:55:56.127Z,3.30
2022-10-03T17:58:29.522Z,3.92
2022-10-03T18:01:12.553Z,3.38
2022-10-03T18:03:50.853Z,3.90
2022-10-03T18:06:20.893Z,3.95
2022-10-03T18:08:50.891Z,5.43
2022-10-03T18:11:40.241Z,4.40
2022-10-03T18:14:11.367Z,4.75
2022-10-03T18:16:47.755Z,4.57
2022-10-03T18:19:43.607Z,3.83
2022-10-03T18:22:20.705Z,4.20
2022-10-03T18:24:55.153Z,4.95
2022-10-03T18:27:37.737Z,4.43
2022-10-03T18:30:21.479Z,4.78
2022-10-03T18:32:50.368Z,3.88
2022-10-03T18:35:27.745Z,3.88
2022-10-03T18:38:18.783Z,3.78
2022-10-03T18:40:58.697Z,3.70
2022-10-03T18:43:27.914Z,3.15
2022-10-03T18:46:00.351Z,4.10
2022-10-03T18:49:34.854Z,4.13
2022-10-03T18:52:26.346Z,4.10
2022-10-03T18:55:17.897Z,3.58
2022-10-03T18:58:08.452Z,3.97
2022-10-03T19:00:52.750Z,3.30
2022-10-03T19:03:27.751Z,3.83
2022-10-03T19:06:02.232Z,3.67
2022-10-03T19:08:39.119Z,4.03
2022-10-03T19:11:11.323Z,3.72
2022-10-03T19:13:57.929Z,38.72
2022-10-03T19:16:33.725Z,100.85
2022-10-03T19:19:14.998Z,31.60
2022-10-03T19:21:43.351Z,14.27
2022-10-03T19:24:30.503Z,19.38
2022-10-03T19:27:17.386Z,10.68
2022-10-03T19:29:53.983Z,7.65
2022-10-03T19:32:43.838Z,6.35
2022-10-03T19:35:18.883Z,5.25
2022-10-03T19:37:51.137Z,6.07
2022-10-03T19:40:37.191Z,6.20
2022-10-03T19:43:26.122Z,4.68
2022-10-03T19:46:04.356Z,5.43
2022-10-03T19:48:34.989Z,4.57
2022-10-03T19:51:25.116Z,3.95
2022-10-03T19:53:56.556Z,4.15
2022-10-03T19:56:26.159Z,4.30
2022-10-03T19:59:04.042Z,3.80
2022-10-03T20:01:50.140Z,8.05
2022-10-03T20:04:36.288Z,5.22
2022-10-03T20:07:15.474Z,5.22
2022-10-03T20:09:56.375Z,4.78
2022-10-03T20:12:27.755Z,4.25
2022-10-03T20:15:01.706Z,4.38
2022-10-03T20:17:30.599Z,4.47
2022-10-03T20:20:04.948Z,4.38
2022-10-03T20:22:36.235Z,4.15
2022-10-03T20:25:23.594Z,7.13
2022-10-03T20:27:57.375Z,5.70
2022-10-03T20:30:44.293Z,3.90
2022-10-03T20:33:22.427Z,4.15
2022-10-03T20:35:55.346Z,4.53
2022-10-03T20:38:31.188Z,4.45
2022-10-03T20:41:12.581Z,4.45
2022-10-03T20:43:53.667Z,3.97
2022-10-03T20:46:41.768Z,4.38
2022-10-03T20:49:15.925Z,3.83
2022-10-03T20:52:16.085Z,3.33
2022-10-03T20:55:00.476Z,4.18
2022-10-03T20:57:32.977Z,3.17
2022-10-03T21:00:16.089Z,3.30
2022-10-03T21:02:56.280Z,3.80
2022-10-03T21:05:25.429Z,3.55
2022-10-03T21:08:00.362Z,3.50
2022-10-03T21:10:37.835Z,4.25
2022-10-03T21:13:19.394Z,4.28
2022-10-03T21:15:53.394Z,3.60
2022-10-03T21:18:40.009Z,4.85
2022-10-03T21:21:19.345Z,5.05
2022-10-03T21:23:56.055Z,3.83
2022-10-03T21:26:26.465Z,3.78
2022-10-03T21:29:28.727Z,4.30
2022-10-03T21:32:20.755Z,4.10
2022-10-03T21:35:10.228Z,3.70
2022-10-03T21:40:44.637Z,4.65
2022-10-03T21:43:34.523Z,4.50
2022-10-03T21:46:16.926Z,3.60
2022-10-03T21:49:02.816Z,5.78
2022-10-03T21:51:37.843Z,4.50
2022-10-03T21:54:36.487Z,3.90
2022-10-03T21:57:23.206Z,4.80
2022-10-03T22:00:10.643Z,4.47
2022-10-03T22:02:46.855Z,4.50
2022-10-03T22:05:31.950Z,4.53
2022-10-03T22:07:59.146Z,4.63
2022-10-03T22:10:36.106Z,4.75
2022-10-03T22:13:08.903Z,4.72
2022-10-03T22:15:48.871Z,6.03
2022-10-03T22:18:20.117Z,4.15
2022-10-03T22:21:10.506Z,4.10
2022-10-03T22:24:09.028Z,4.40
2022-10-03T22:27:12.450Z,3.63
2022-10-03T22:30:07.331Z,3.65
2022-10-03T22:33:09.270Z,3.53
2022-10-03T22:35:39.086Z,4.50
2022-10-03T22:38:07.805Z,12.38
2022-10-03T22:40:36.651Z,7.33
2022-10-03T22:43:06.220Z,5.28
2022-10-03T22:48:12.040Z,5.50
2022-10-03T22:50:42.275Z,4.93
2022-10-03T22:53:14.364Z,10.55
2022-10-03T22:55:45.450Z,8.25
2022-10-03T22:58:14.013Z,5.95
2022-10-03T23:00:43.006Z,7.35
2022-10-03T23:03:19.661Z,7.82
2022-10-03T23:05:57.119Z,8.80
2022-10-03T23:08:57.630Z,6.18
2022-10-03T23:11:33.025Z,4.13
2022-10-03T23:14:13.138Z,4.95
2022-10-03T23:16:51.328Z,5.35
2022-10-03T23:19:35.287Z,7.93
2022-10-03T23:22:04.425Z,7.30
2022-10-03T23:24:42.337Z,6.07
2022-10-03T23:27:40.255Z,5.63
2022-10-03T23:30:29.901Z,5.43
2022-10-03T23:33:00.419Z,5.22
2022-10-03T23:35:30.422Z,4.80
2022-10-03T23:37:59.694Z,8.90
2022-10-03T23:40:47.837Z,9.68
2022-10-03T23:43:38.359Z,20.10
2022-10-03T23:46:13.303Z,12.65
2022-10-03T23:48:49.177Z,7.22
2022-10-03T23:51:24.367Z,5.53
2022-10-03T23:53:59.382Z,4.38
2022-10-03T23:56:48.552Z,3.60
2022-10-03T23:59:15.572Z,4.35
